sensor_id;sensor_type;location;lat;lon;timestamp;pressure;altitude;pressure_sealevel;temperature;humidity
69780;BME280;57052;55.602;38.096;2023-09-07T00:01:18;100708.38;;;13.85;53.29
69780;BME280;57052;55.602;38.096;2023-09-07T00:03:44;100713.84;;;13.80;53.70
69780;BME280;57052;55.602;38.096;2023-09-07T00:06:10;100706.53;;;13.71;53.77
69780;BME280;57052;55.602;38.096;2023-09-07T00:08:36;100718.22;;;13.76;53.97
69780;BME280;57052;55.602;38.096;2023-09-07T00:11:08;100718.25;;;13.71;54.53
69780;BME280;57052;55.602;38.096;2023-09-07T00:13:35;100723.69;;;13.71;53.79
69780;BME280;57052;55.602;38.096;2023-09-07T00:16:02;100713.66;;;13.67;54.34
69780;BME280;57052;55.602;38.096;2023-09-07T00:18:29;100725.88;;;13.69;54.07
69780;BME280;57052;55.602;38.096;2023-09-07T00:20:55;100726.97;;;13.68;54.19
69780;BME280;57052;55.602;38.096;2023-09-07T00:23:21;100732.69;;;13.67;54.44
69780;BME280;57052;55.602;38.096;2023-09-07T00:25:48;100726.19;;;13.63;54.55
69780;BME280;57052;55.602;38.096;2023-09-07T00:28:13;100719.94;;;13.62;54.53
69780;BME280;57052;55.602;38.096;2023-09-07T00:30:39;100727.56;;;13.60;54.60
69780;BME280;57052;55.602;38.096;2023-09-07T00:33:06;100726.47;;;13.56;54.84
69780;BME280;57052;55.602;38.096;2023-09-07T00:35:32;100717.78;;;13.49;55.04
69780;BME280;57052;55.602;38.096;2023-09-07T00:37:58;100697.16;;;13.33;54.89
69780;BME280;57052;55.602;38.096;2023-09-07T00:40:24;100739.00;;;13.57;55.21
69780;BME280;57052;55.602;38.096;2023-09-07T00:42:50;100741.72;;;13.52;55.49
69780;BME280;57052;55.602;38.096;2023-09-07T00:45:16;100739.25;;;13.50;55.06
69780;BME280;57052;55.602;38.096;2023-09-07T00:47:42;100744.16;;;13.48;55.36
69780;BME280;57052;55.602;38.096;2023-09-07T00:50:08;100742.28;;;13.44;55.46
69780;BME280;57052;55.602;38.096;2023-09-07T00:52:34;100732.50;;;13.33;55.68
69780;BME280;57052;55.602;38.096;2023-09-07T00:55:04;100746.66;;;13.35;56.26
69780;BME280;57052;55.602;38.096;2023-09-07T00:57:30;100748.81;;;13.33;55.79
69780;BME280;57052;55.602;38.096;2023-09-07T00:59:56;100751.00;;;13.26;56.03
69780;BME280;57052;55.602;38.096;2023-09-07T01:02:21;100757.56;;;13.25;56.06
69780;BME280;57052;55.602;38.096;2023-09-07T01:04:47;100754.28;;;13.23;56.14
69780;BME280;57052;55.602;38.096;2023-09-07T01:07:24;100737.19;;;13.07;58.03
69780;BME280;57052;55.602;38.096;2023-09-07T01:09:56;100755.94;;;13.14;57.71
69780;BME280;57052;55.602;38.096;2023-09-07T01:12:23;100762.41;;;12.93;59.09
69780;BME280;57052;55.602;38.096;2023-09-07T01:14:48;100762.16;;;13.04;57.15
69780;BME280;57052;55.602;38.096;2023-09-07T01:17:15;100763.22;;;13.03;57.23
69780;BME280;57052;55.602;38.096;2023-09-07T01:19:41;100768.41;;;13.00;57.39
69780;BME280;57052;55.602;38.096;2023-09-07T01:22:10;100764.06;;;13.04;57.91
69780;BME280;57052;55.602;38.096;2023-09-07T01:24:37;100769.78;;;13.02;57.25
69780;BME280;57052;55.602;38.096;2023-09-07T01:27:05;100761.34;;;12.99;57.26
69780;BME280;57052;55.602;38.096;2023-09-07T01:29:30;100767.59;;;13.04;57.09
69780;BME280;57052;55.602;38.096;2023-09-07T01:31:57;100755.63;;;13.00;57.53
69780;BME280;57052;55.602;38.096;2023-09-07T01:34:26;100772.19;;;13.04;58.28
69780;BME280;57052;55.602;38.096;2023-09-07T01:36:52;100773.84;;;13.00;57.85
69780;BME280;57052;55.602;38.096;2023-09-07T01:39:18;100778.47;;;12.99;57.63
69780;BME280;57052;55.602;38.096;2023-09-07T01:41:43;100779.00;;;12.96;57.69
69780;BME280;57052;55.602;38.096;2023-09-07T01:44:09;100780.91;;;12.96;57.79
69780;BME280;57052;55.602;38.096;2023-09-07T01:46:35;100778.19;;;12.91;57.79
69780;BME280;57052;55.602;38.096;2023-09-07T01:49:03;100777.09;;;12.86;58.10
69780;BME280;57052;55.602;38.096;2023-09-07T01:51:29;100786.06;;;12.92;58.43
69780;BME280;57052;55.602;38.096;2023-09-07T01:53:54;100785.25;;;12.92;58.20
69780;BME280;57052;55.602;38.096;2023-09-07T01:56:20;100769.50;;;12.83;58.57
69780;BME280;57052;55.602;38.096;2023-09-07T01:58:46;100790.16;;;12.84;58.74
69780;BME280;57052;55.602;38.096;2023-09-07T02:03:48;100795.03;;;12.88;58.62
69780;BME280;57052;55.602;38.096;2023-09-07T02:06:14;100795.03;;;12.88;59.01
69780;BME280;57052;55.602;38.096;2023-09-07T02:08:40;100799.66;;;12.87;58.82
69780;BME280;57052;55.602;38.096;2023-09-07T02:11:06;100802.38;;;12.87;59.07
69780;BME280;57052;55.602;38.096;2023-09-07T02:13:32;100799.66;;;12.87;59.40
69780;BME280;57052;55.602;38.096;2023-09-07T02:15:57;100798.56;;;12.83;59.37
69780;BME280;57052;55.602;38.096;2023-09-07T02:18:23;100799.38;;;12.83;59.69
69780;BME280;57052;55.602;38.096;2023-09-07T02:21:09;100798.56;;;12.83;59.43
69780;BME280;57052;55.602;38.096;2023-09-07T02:23:35;100804.81;;;12.78;59.90
69780;BME280;57052;55.602;38.096;2023-09-07T02:26:04;100784.69;;;12.69;59.83
69780;BME280;57052;55.602;38.096;2023-09-07T02:28:30;100809.97;;;12.75;60.22
69780;BME280;57052;55.602;38.096;2023-09-07T02:31:02;100810.75;;;12.70;61.21
69780;BME280;57052;55.602;38.096;2023-09-07T02:33:28;100809.69;;;12.66;60.33
69780;BME280;57052;55.602;38.096;2023-09-07T02:35:54;100821.06;;;12.63;60.23
69780;BME280;57052;55.602;38.096;2023-09-07T02:38:20;100812.09;;;12.58;60.43
69780;BME280;57052;55.602;38.096;2023-09-07T02:40:46;100823.53;;;12.60;60.52
69780;BME280;57052;55.602;38.096;2023-09-07T02:43:11;100829.75;;;12.60;60.60
69780;BME280;57052;55.602;38.096;2023-09-07T02:45:38;100830.03;;;12.59;60.72
69780;BME280;57052;55.602;38.096;2023-09-07T02:48:05;100816.44;;;12.49;60.95
69780;BME280;57052;55.602;38.096;2023-09-07T02:50:33;100832.72;;;12.54;61.12
69780;BME280;57052;55.602;38.096;2023-09-07T02:52:59;100840.06;;;12.53;61.19
69780;BME280;57052;55.602;38.096;2023-09-07T02:55:26;100843.88;;;12.52;61.27
69780;BME280;57052;55.602;38.096;2023-09-07T02:57:52;100831.63;;;12.45;61.39
69780;BME280;57052;55.602;38.096;2023-09-07T03:00:17;100844.94;;;12.51;61.41
69780;BME280;57052;55.602;38.096;2023-09-07T03:02:43;100856.34;;;12.48;61.65
69780;BME280;57052;55.602;38.096;2023-09-07T03:05:09;100857.69;;;12.46;61.87
69780;BME280;57052;55.602;38.096;2023-09-07T03:07:35;100850.88;;;12.43;61.74
69780;BME280;57052;55.602;38.096;2023-09-07T03:10:01;100855.22;;;12.39;61.71
69780;BME280;57052;55.602;38.096;2023-09-07T03:12:27;100856.06;;;12.40;61.89
69780;BME280;57052;55.602;38.096;2023-09-07T03:14:53;100860.13;;;12.37;61.88
69780;BME280;57052;55.602;38.096;2023-09-07T03:17:19;100854.66;;;12.32;62.25
69780;BME280;57052;55.602;38.096;2023-09-07T03:19:48;100861.41;;;12.25;62.50
69780;BME280;57052;55.602;38.096;2023-09-07T03:22:13;100834.47;;;12.08;62.53
69780;BME280;57052;55.602;38.096;2023-09-07T03:24:39;100867.38;;;12.21;62.95
69780;BME280;57052;55.602;38.096;2023-09-07T03:27:05;100860.56;;;12.19;62.30
69780;BME280;57052;55.602;38.096;2023-09-07T03:29:32;100867.91;;;12.23;62.63
69780;BME280;57052;55.602;38.096;2023-09-07T03:32:01;100873.06;;;12.25;62.83
69780;BME280;57052;55.602;38.096;2023-09-07T03:34:27;100876.88;;;12.24;62.96
69780;BME280;57052;55.602;38.096;2023-09-07T03:36:53;100876.06;;;12.23;62.97
69780;BME280;57052;55.602;38.096;2023-09-07T03:39:18;100882.03;;;12.26;63.14
69780;BME280;57052;55.602;38.096;2023-09-07T03:41:46;100879.31;;;12.26;62.78
69780;BME280;57052;55.602;38.096;2023-09-07T03:44:12;100878.53;;;12.30;62.80
69780;BME280;57052;55.602;38.096;2023-09-07T03:46:38;100884.53;;;12.32;62.88
69780;BME280;57052;55.602;38.096;2023-09-07T03:49:04;100886.16;;;12.33;63.07
69780;BME280;57052;55.602;38.096;2023-09-07T03:51:29;100878.53;;;12.30;63.20
69780;BME280;57052;55.602;38.096;2023-09-07T03:53:55;100880.69;;;12.28;62.97
69780;BME280;57052;55.602;38.096;2023-09-07T03:56:20;100891.56;;;12.33;63.09
69780;BME280;57052;55.602;38.096;2023-09-07T03:58:46;100898.88;;;12.33;62.78
69780;BME280;57052;55.602;38.096;2023-09-07T04:01:15;100893.47;;;12.33;62.87
69780;BME280;57052;55.602;38.096;2023-09-07T04:03:40;100895.94;;;12.34;63.24
69780;BME280;57052;55.602;38.096;2023-09-07T04:06:07;100897.84;;;12.39;62.68
69780;BME280;57052;55.602;38.096;2023-09-07T04:08:33;100895.69;;;12.41;63.19
69780;BME280;57052;55.602;38.096;2023-09-07T04:11:03;100893.75;;;12.36;63.73
69780;BME280;57052;55.602;38.096;2023-09-07T04:13:29;100903.00;;;12.40;62.62
69780;BME280;57052;55.602;38.096;2023-09-07T04:15:54;100908.44;;;12.45;63.20
69780;BME280;57052;55.602;38.096;2023-09-07T04:18:20;100911.16;;;12.45;63.19
69780;BME280;57052;55.602;38.096;2023-09-07T04:20:45;100909.56;;;12.44;63.04
69780;BME280;57052;55.602;38.096;2023-09-07T04:23:11;100908.44;;;12.40;62.77
69780;BME280;57052;55.602;38.096;2023-09-07T04:25:37;100910.91;;;12.42;63.03
69780;BME280;57052;55.602;38.096;2023-09-07T04:28:05;100912.28;;;12.44;62.91
69780;BME280;57052;55.602;38.096;2023-09-07T04:30:32;100875.50;;;12.21;62.73
69780;BME280;57052;55.602;38.096;2023-09-07T04:32:58;100916.38;;;12.52;62.50
69780;BME280;57052;55.602;38.096;2023-09-07T04:35:30;100923.16;;;12.54;63.32
69780;BME280;57052;55.602;38.096;2023-09-07T04:37:56;100890.50;;;12.34;62.40
69780;BME280;57052;55.602;38.096;2023-09-07T04:40:23;100916.41;;;12.57;62.51
69780;BME280;57052;55.602;38.096;2023-09-07T04:42:49;100935.97;;;12.64;62.37
69780;BME280;57052;55.602;38.096;2023-09-07T04:45:14;100923.75;;;12.61;62.21
69780;BME280;57052;55.602;38.096;2023-09-07T04:47:40;100924.56;;;12.62;62.46
69780;BME280;57052;55.602;38.096;2023-09-07T04:50:06;100929.19;;;12.66;62.41
69780;BME280;57052;55.602;38.096;2023-09-07T04:52:32;100945.22;;;12.73;62.22
69780;BME280;57052;55.602;38.096;2023-09-07T04:54:58;100935.47;;;12.72;62.23
69780;BME280;57052;55.602;38.096;2023-09-07T04:57:23;100936.56;;;12.76;61.98
69780;BME280;57052;55.602;38.096;2023-09-07T04:59:49;100940.66;;;12.83;62.01
69780;BME280;57052;55.602;38.096;2023-09-07T05:02:15;100948.81;;;12.88;61.86
69780;BME280;57052;55.602;38.096;2023-09-07T05:04:40;100957.00;;;12.94;62.06
69780;BME280;57052;55.602;38.096;2023-09-07T05:07:06;100941.47;;;12.84;62.13
69780;BME280;57052;55.602;38.096;2023-09-07T05:09:32;100946.94;;;12.94;61.69
69780;BME280;57052;55.602;38.096;2023-09-07T05:11:58;100945.59;;;12.97;61.63
69780;BME280;57052;55.602;38.096;2023-09-07T05:14:25;100943.69;;;12.97;61.33
69780;BME280;57052;55.602;38.096;2023-09-07T05:16:51;100946.97;;;12.99;61.51
69780;BME280;57052;55.602;38.096;2023-09-07T05:19:16;100948.38;;;13.07;61.33
69780;BME280;57052;55.602;38.096;2023-09-07T05:21:42;100958.16;;;13.13;61.26
69780;BME280;57052;55.602;38.096;2023-09-07T05:24:08;100955.72;;;13.16;61.22
69780;BME280;57052;55.602;38.096;2023-09-07T05:26:33;100954.91;;;13.21;61.30
69780;BME280;57052;55.602;38.096;2023-09-07T05:28:59;100940.75;;;13.14;60.59
69780;BME280;57052;55.602;38.096;2023-09-07T05:31:25;100948.13;;;13.23;61.15
69780;BME280;57052;55.602;38.096;2023-09-07T05:33:51;100948.66;;;13.30;60.62
69780;BME280;57052;55.602;38.096;2023-09-07T05:36:17;100953.31;;;13.35;60.71
69780;BME280;57052;55.602;38.096;2023-09-07T05:38:43;100948.69;;;13.35;60.56
69780;BME280;57052;55.602;38.096;2023-09-07T05:41:08;100954.13;;;13.45;60.49
69780;BME280;57052;55.602;38.096;2023-09-07T05:43:34;100939.16;;;13.43;60.64
69780;BME280;57052;55.602;38.096;2023-09-07T05:46:00;100959.84;;;13.59;60.58
69780;BME280;57052;55.602;38.096;2023-09-07T05:48:26;100941.63;;;13.55;60.05
69780;BME280;57052;55.602;38.096;2023-09-07T05:50:51;100956.31;;;13.64;59.98
69780;BME280;57052;55.602;38.096;2023-09-07T05:53:20;100959.88;;;13.69;59.96
69780;BME280;57052;55.602;38.096;2023-09-07T05:55:46;100955.78;;;13.67;59.68
69780;BME280;57052;55.602;38.096;2023-09-07T05:58:12;100947.34;;;13.68;58.86
69780;BME280;57052;55.602;38.096;2023-09-07T06:00:39;100956.06;;;13.75;58.80
69780;BME280;57052;55.602;38.096;2023-09-07T06:03:07;100946.53;;;13.73;58.69
69780;BME280;57052;55.602;38.096;2023-09-07T06:05:34;100949.50;;;13.81;58.79
69780;BME280;57052;55.602;38.096;2023-09-07T06:08:00;100957.97;;;13.85;58.31
69780;BME280;57052;55.602;38.096;2023-09-07T06:10:28;100958.22;;;13.88;58.57
69780;BME280;57052;55.602;38.096;2023-09-07T06:12:54;100959.84;;;13.94;58.35
69780;BME280;57052;55.602;38.096;2023-09-07T06:15:20;100971.81;;;13.98;58.34
69780;BME280;57052;55.602;38.096;2023-09-07T06:17:45;100951.41;;;13.96;58.00
69780;BME280;57052;55.602;38.096;2023-09-07T06:20:11;100969.91;;;14.09;58.21
69780;BME280;57052;55.602;38.096;2023-09-07T06:22:37;100974.50;;;14.13;57.73
69780;BME280;57052;55.602;38.096;2023-09-07T06:25:03;100971.78;;;14.13;57.63
69780;BME280;57052;55.602;38.096;2023-09-07T06:27:28;100964.72;;;14.12;57.62
69780;BME280;57052;55.602;38.096;2023-09-07T06:29:54;100972.31;;;14.26;57.51
69780;BME280;57052;55.602;38.096;2023-09-07T06:32:20;100979.13;;;14.28;57.41
69780;BME280;57052;55.602;38.096;2023-09-07T06:34:46;100975.63;;;14.33;57.79
69780;BME280;57052;55.602;38.096;2023-09-07T06:37:12;100981.59;;;14.35;57.27
69780;BME280;57052;55.602;38.096;2023-09-07T06:39:38;100980.78;;;14.39;57.10
69780;BME280;57052;55.602;38.096;2023-09-07T06:42:04;100988.63;;;14.46;57.02
69780;BME280;57052;55.602;38.096;2023-09-07T06:44:30;100993.81;;;14.52;57.01
69780;BME280;57052;55.602;38.096;2023-09-07T06:46:56;100990.53;;;14.55;56.80
69780;BME280;57052;55.602;38.096;2023-09-07T06:49:21;100983.97;;;14.56;56.38
69780;BME280;57052;55.602;38.096;2023-09-07T06:51:47;100993.78;;;14.62;56.23
69780;BME280;57052;55.602;38.096;2023-09-07T06:54:13;101001.66;;;14.64;55.85
69780;BME280;57052;55.602;38.096;2023-09-07T06:56:39;100995.69;;;14.62;55.93
69780;BME280;57052;55.602;38.096;2023-09-07T06:59:05;100990.25;;;14.57;56.18
69780;BME280;57052;55.602;38.096;2023-09-07T07:01:31;100976.91;;;14.55;55.77
69780;BME280;57052;55.602;38.096;2023-09-07T07:03:56;100993.47;;;14.69;55.62
69780;BME280;57052;55.602;38.096;2023-09-07T07:06:23;100992.94;;;14.67;55.62
69780;BME280;57052;55.602;38.096;2023-09-07T07:08:48;100991.25;;;14.76;55.59
69780;BME280;57052;55.602;38.096;2023-09-07T07:11:14;100989.63;;;14.80;55.25
69780;BME280;57052;55.602;38.096;2023-09-07T07:13:40;100997.78;;;14.85;55.13
69780;BME280;57052;55.602;38.096;2023-09-07T07:16:06;101000.50;;;14.90;55.00
69780;BME280;57052;55.602;38.096;2023-09-07T07:18:31;100997.75;;;14.95;54.69
69780;BME280;57052;55.602;38.096;2023-09-07T07:20:57;100996.63;;;15.01;54.77
69780;BME280;57052;55.602;38.096;2023-09-07T07:23:23;101000.44;;;15.05;54.46
69780;BME280;57052;55.602;38.096;2023-09-07T07:25:48;101002.31;;;15.10;54.16
69780;BME280;57052;55.602;38.096;2023-09-07T07:28:15;101001.22;;;15.06;53.98
69780;BME280;57052;55.602;38.096;2023-09-07T07:30:40;101003.94;;;15.06;53.84
69780;BME280;57052;55.602;38.096;2023-09-07T07:33:07;101003.69;;;15.07;54.00
69780;BME280;57052;55.602;38.096;2023-09-07T07:35:34;101009.38;;;15.11;53.83
69780;BME280;57052;55.602;38.096;2023-09-07T07:38:04;100996.56;;;15.11;53.75
69780;BME280;57052;55.602;38.096;2023-09-07T07:40:30;101002.75;;;15.27;53.56
69780;BME280;57052;55.602;38.096;2023-09-07T07:42:56;101003.25;;;15.34;53.45
69780;BME280;57052;55.602;38.096;2023-09-07T07:45:22;100999.13;;;15.41;53.36
69780;BME280;57052;55.602;38.096;2023-09-07T07:47:51;101000.75;;;15.48;52.83
69780;BME280;57052;55.602;38.096;2023-09-07T07:50:17;100978.66;;;15.39;53.18
69780;BME280;57052;55.602;38.096;2023-09-07T07:52:44;101009.44;;;15.55;53.03
69780;BME280;57052;55.602;38.096;2023-09-07T07:55:11;101009.66;;;15.58;52.70
69780;BME280;57052;55.602;38.096;2023-09-07T07:57:37;101003.97;;;15.55;52.56
69780;BME280;57052;55.602;38.096;2023-09-07T08:00:06;100998.47;;;15.60;52.01
69780;BME280;57052;55.602;38.096;2023-09-07T08:02:33;101001.66;;;15.72;52.31
69780;BME280;57052;55.602;38.096;2023-09-07T08:04:58;101008.44;;;15.79;52.22
69780;BME280;57052;55.602;38.096;2023-09-07T08:07:24;100998.03;;;15.81;52.05
69780;BME280;57052;55.602;38.096;2023-09-07T08:09:52;100990.63;;;15.87;51.90
69780;BME280;57052;55.602;38.096;2023-09-07T08:12:17;101000.69;;;15.91;51.52
69780;BME280;57052;55.602;38.096;2023-09-07T08:14:43;100994.66;;;15.94;51.24
69780;BME280;57052;55.602;38.096;2023-09-07T08:17:09;100991.59;;;16.01;51.10
69780;BME280;57052;55.602;38.096;2023-09-07T08:19:34;100993.75;;;16.04;51.05
69780;BME280;57052;55.602;38.096;2023-09-07T08:22:00;101004.06;;;16.12;50.97
69780;BME280;57052;55.602;38.096;2023-09-07T08:24:30;100992.81;;;16.14;50.31
69780;BME280;57052;55.602;38.096;2023-09-07T08:26:55;101005.91;;;16.17;50.10
69780;BME280;57052;55.602;38.096;2023-09-07T08:29:26;100989.00;;;16.15;48.68
69780;BME280;57052;55.602;38.096;2023-09-07T08:31:53;100992.69;;;16.29;49.70
69780;BME280;57052;55.602;38.096;2023-09-07T08:34:20;100988.44;;;16.41;49.68
69780;BME280;57052;55.602;38.096;2023-09-07T08:36:48;100996.66;;;16.41;49.38
69780;BME280;57052;55.602;38.096;2023-09-07T08:39:16;101005.97;;;16.40;49.20
69780;BME280;57052;55.602;38.096;2023-09-07T08:41:43;100995.63;;;16.37;48.98
69780;BME280;57052;55.602;38.096;2023-09-07T08:44:17;100992.56;;;16.39;48.00
69780;BME280;57052;55.602;38.096;2023-09-07T08:46:43;100986.78;;;16.45;48.76
69780;BME280;57052;55.602;38.096;2023-09-07T08:49:12;100981.00;;;16.52;48.26
69780;BME280;57052;55.602;38.096;2023-09-07T08:51:38;100977.63;;;16.60;48.57
69780;BME280;57052;55.602;38.096;2023-09-07T08:54:05;100967.03;;;16.53;48.58
69780;BME280;57052;55.602;38.096;2023-09-07T08:56:32;100984.00;;;16.74;48.11
69780;BME280;57052;55.602;38.096;2023-09-07T08:58:58;100971.47;;;16.73;47.67
69780;BME280;57052;55.602;38.096;2023-09-07T09:01:24;100996.47;;;16.85;47.38
69780;BME280;57052;55.602;38.096;2023-09-07T09:03:50;100978.81;;;16.96;47.15
69780;BME280;57052;55.602;38.096;2023-09-07T09:06:18;100982.22;;;17.07;46.64
69780;BME280;57052;55.602;38.096;2023-09-07T09:08:53;100983.72;;;17.18;46.13
69780;BME280;57052;55.602;38.096;2023-09-07T09:11:20;100967.81;;;17.20;45.80
69780;BME280;57052;55.602;38.096;2023-09-07T09:13:47;100957.91;;;17.24;45.53
69780;BME280;57052;55.602;38.096;2023-09-07T09:16:14;100963.38;;;17.43;45.13
69780;BME280;57052;55.602;38.096;2023-09-07T09:18:58;100979.38;;;17.54;42.91
69780;BME280;57052;55.602;38.096;2023-09-07T09:21:26;100976.56;;;17.59;44.11
69780;BME280;57052;55.602;38.096;2023-09-07T09:23:54;100999.78;;;17.62;43.64
69780;BME280;57052;55.602;38.096;2023-09-07T09:26:20;101002.84;;;17.60;44.13
69780;BME280;57052;55.602;38.096;2023-09-07T09:28:46;100987.00;;;17.57;44.08
69780;BME280;57052;55.602;38.096;2023-09-07T09:31:13;100981.94;;;17.64;43.51
69780;BME280;57052;55.602;38.096;2023-09-07T09:33:41;100975.72;;;17.77;43.27
69780;BME280;57052;55.602;38.096;2023-09-07T09:36:08;100970.31;;;17.91;42.91
69780;BME280;57052;55.602;38.096;2023-09-07T09:38:34;100973.38;;;18.17;42.81
69780;BME280;57052;55.602;38.096;2023-09-07T09:41:00;100982.38;;;18.36;42.15
69780;BME280;57052;55.602;38.096;2023-09-07T09:43:29;100979.72;;;18.44;42.02
69780;BME280;57052;55.602;38.096;2023-09-07T09:45:55;100979.72;;;18.44;41.42
69780;BME280;57052;55.602;38.096;2023-09-07T09:48:22;100985.75;;;18.46;41.59
69780;BME280;57052;55.602;38.096;2023-09-07T09:50:49;100924.38;;;18.29;41.30
69780;BME280;57052;55.602;38.096;2023-09-07T09:53:16;100966.69;;;18.69;41.29
69780;BME280;57052;55.602;38.096;2023-09-07T09:55:45;100977.03;;;18.85;40.57
69780;BME280;57052;55.602;38.096;2023-09-07T09:58:15;100961.22;;;19.04;40.43
69780;BME280;57052;55.602;38.096;2023-09-07T10:00:46;100968.84;;;19.21;38.80
69780;BME280;57052;55.602;38.096;2023-09-07T10:03:27;100964.34;;;19.25;37.25
69780;BME280;57052;55.602;38.096;2023-09-07T10:05:53;100963.84;;;19.23;39.20
69780;BME280;57052;55.602;38.096;2023-09-07T10:08:20;100962.69;;;19.24;39.21
69780;BME280;57052;55.602;38.096;2023-09-07T10:10:52;100964.53;;;19.29;39.04
69780;BME280;57052;55.602;38.096;2023-09-07T10:13:31;100964.03;;;19.40;36.94
69780;BME280;57052;55.602;38.096;2023-09-07T10:16:03;100968.59;;;19.67;37.70
69780;BME280;57052;55.602;38.096;2023-09-07T10:18:39;100966.84;;;19.93;37.43
69780;BME280;57052;55.602;38.096;2023-09-07T10:21:05;100972.66;;;20.22;38.52
69780;BME280;57052;55.602;38.096;2023-09-07T10:23:39;100947.66;;;20.32;35.56
69780;BME280;57052;55.602;38.096;2023-09-07T10:26:09;100951.63;;;20.49;37.39
69780;BME280;57052;55.602;38.096;2023-09-07T10:28:35;100951.78;;;20.52;37.54
69780;BME280;57052;55.602;38.096;2023-09-07T10:31:35;100958.78;;;20.58;37.15
69780;BME280;57052;55.602;38.096;2023-09-07T10:33:56;100951.78;;;20.52;37.51
69780;BME280;57052;55.602;38.096;2023-09-07T10:36:25;100977.00;;;20.45;37.30
69780;BME280;57052;55.602;38.096;2023-09-07T10:38:54;100976.44;;;20.26;37.52
69780;BME280;57052;55.602;38.096;2023-09-07T11:10:34;100979.19;;;19.82;36.20
69780;BME280;57052;55.602;38.096;2023-09-07T11:13:06;100964.94;;;20.02;37.25
69780;BME280;57052;55.602;38.096;2023-09-07T11:15:33;100954.78;;;20.03;38.42
69780;BME280;57052;55.602;38.096;2023-09-07T11:18:08;100964.00;;;20.29;36.97
69780;BME280;57052;55.602;38.096;2023-09-07T11:20:37;100963.72;;;20.39;36.57
69780;BME280;57052;55.602;38.096;2023-09-07T11:23:05;100961.75;;;20.39;37.63
69780;BME280;57052;55.602;38.096;2023-09-07T11:25:36;100963.41;;;20.40;36.40
69780;BME280;57052;55.602;38.096;2023-09-07T11:28:04;100964.34;;;20.36;37.27
69780;BME280;57052;55.602;38.096;2023-09-07T11:30:31;100959.13;;;20.26;37.29
69780;BME280;57052;55.602;38.096;2023-09-07T11:33:04;100952.88;;;20.42;36.61
69780;BME280;57052;55.602;38.096;2023-09-07T11:35:31;100935.97;;;20.58;37.47
69780;BME280;57052;55.602;38.096;2023-09-07T11:37:59;100949.97;;;20.95;36.56
69780;BME280;57052;55.602;38.096;2023-09-07T11:40:25;100944.84;;;21.20;36.60
69780;BME280;57052;55.602;38.096;2023-09-07T11:42:51;100935.78;;;21.45;35.78
69780;BME280;57052;55.602;38.096;2023-09-07T11:45:17;100937.06;;;21.73;35.54
69780;BME280;57052;55.602;38.096;2023-09-07T11:47:44;100930.25;;;21.96;35.13
69780;BME280;57052;55.602;38.096;2023-09-07T11:50:09;100935.19;;;22.20;34.39
69780;BME280;57052;55.602;38.096;2023-09-07T11:52:35;100938.03;;;22.41;33.85
69780;BME280;57052;55.602;38.096;2023-09-07T11:55:01;100932.69;;;22.35;33.71
69780;BME280;57052;55.602;38.096;2023-09-07T11:57:30;100906.25;;;22.34;32.85
69780;BME280;57052;55.602;38.096;2023-09-07T11:59:56;100930.34;;;22.17;33.19
69780;BME280;57052;55.602;38.096;2023-09-07T12:02:22;100928.41;;;22.09;33.41
69780;BME280;57052;55.602;38.096;2023-09-07T12:04:48;100923.09;;;21.95;33.19
69780;BME280;57052;55.602;38.096;2023-09-07T12:07:14;100928.88;;;22.11;33.39
69780;BME280;57052;55.602;38.096;2023-09-07T12:09:40;100923.91;;;21.96;33.51
69780;BME280;57052;55.602;38.096;2023-09-07T12:12:06;100932.00;;;22.01;33.71
69780;BME280;57052;55.602;38.096;2023-09-07T12:14:32;100930.00;;;22.10;33.84
69780;BME280;57052;55.602;38.096;2023-09-07T12:16:57;100921.75;;;22.10;34.31
69780;BME280;57052;55.602;38.096;2023-09-07T12:19:23;100935.56;;;22.01;34.36
69780;BME280;57052;55.602;38.096;2023-09-07T12:21:51;100931.53;;;21.90;33.51
69780;BME280;57052;55.602;38.096;2023-09-07T12:24:16;100933.63;;;21.85;34.21
69780;BME280;57052;55.602;38.096;2023-09-07T12:26:42;100926.84;;;21.73;33.90
69780;BME280;57052;55.602;38.096;2023-09-07T12:29:08;100930.25;;;21.62;34.19
69780;BME280;57052;55.602;38.096;2023-09-07T12:31:33;100926.88;;;21.56;34.45
69780;BME280;57052;55.602;38.096;2023-09-07T12:33:59;100910.97;;;21.45;34.20
69780;BME280;57052;55.602;38.096;2023-09-07T12:36:24;100919.59;;;21.43;34.35
69780;BME280;57052;55.602;38.096;2023-09-07T12:38:53;100920.91;;;21.29;34.25
69780;BME280;57052;55.602;38.096;2023-09-07T12:41:19;100925.72;;;21.15;34.11
69780;BME280;57052;55.602;38.096;2023-09-07T12:43:46;100922.78;;;20.94;33.40
69780;BME280;57052;55.602;38.096;2023-09-07T12:46:12;100917.38;;;20.63;33.56
69780;BME280;57052;55.602;38.096;2023-09-07T12:48:38;100934.16;;;20.53;33.44
69780;BME280;57052;55.602;38.096;2023-09-07T12:51:04;100920.50;;;20.39;33.68
69780;BME280;57052;55.602;38.096;2023-09-07T12:53:29;100915.31;;;20.29;33.70
69780;BME280;57052;55.602;38.096;2023-09-07T12:55:55;100928.19;;;20.20;33.63
69780;BME280;57052;55.602;38.096;2023-09-07T12:58:21;100923.44;;;20.12;33.93
69780;BME280;57052;55.602;38.096;2023-09-07T13:00:47;100920.41;;;20.14;33.88
69780;BME280;57052;55.602;38.096;2023-09-07T13:03:16;100883.09;;;19.91;34.29
69780;BME280;57052;55.602;38.096;2023-09-07T13:05:43;100919.88;;;20.12;34.23
69780;BME280;57052;55.602;38.096;2023-09-07T13:08:09;100896.56;;;20.01;34.08
69780;BME280;57052;55.602;38.096;2023-09-07T13:10:35;100915.66;;;20.06;34.63